< < Back
Terminal Aerodrome Forecast


Current Version              Previous Versions:   1  2  3  4  5  6  7  8  9  

Terminal Aerodrome Forecast

382
FTUS42 KTAE 062325
TAFDHN
TAF
KDHN 062325Z 0700/0724 32007KT P6SM FEW070=

Latest METAR

826
SAUS70 KWBC 070000 RRI
MTRDHN
METAR KDHN 062353Z 34010KT 10SM CLR 22/05 A2995 RMK AO2 SLP140 T02170050
10244 20217 53004


USA.gov is the U.S. government's official web portal to all federal, state and local government web resources and services.